This is the latest recevied weather packets stored in our database for station/object NK0Z-13. If no packets are shown the sender has not sent any weather packets the latest 10 day(s).
| Time | Temp. | Humidity | Pressure | Rain* | Wind** | Luminosity | Snow |
|---|---|---|---|---|---|---|---|
| 1777642722 | 10.56° C | 68% | 1022 hPa | 0 mm | - | 249 W/m² | - |
| 1777642122 | 10° C | 70% | 1021.9 hPa | 0 mm | - | 197 W/m² | - |
| 1777641519 | 8.89° C | 79% | 1021.9 hPa | 0 mm | - | 161 W/m² | - |
| 1777640918 | 7.22° C | 90% | 1021.8 hPa | 0 mm | - | 140 W/m² | - |
| 1777640316 | 6.11° C | 94% | 1021.9 hPa | 0 mm | - | 115 W/m² | - |
| 1777639716 | 5.56° C | 95% | 1022.2 hPa | 0 mm | - | 94 W/m² | - |
| 1777639114 | 6.11° C | 96% | 1021.8 hPa | 0 mm | - | 77 W/m² | - |
| 1777638512 | 5° C | 96% | 1021.8 hPa | 0 mm | - | 62 W/m² | - |
| 1777637910 | 2.22° C | 97% | 1021.5 hPa | 0 mm | - | 49 W/m² | - |
| 1777637310 | 1.11° C | 97% | 1021.5 hPa | 0 mm | - | 29 W/m² | - |
| 1777636708 | 1.11° C | 97% | 1021.6 hPa | 0 mm | - | 21 W/m² | - |
| 1777636107 | 1.11° C | 97% | 1021.7 hPa | 0 mm | - | 13 W/m² | - |
| 1777635505 | 0.56° C | 96% | 1021.6 hPa | 0 mm | - | 6 W/m² | - |
| 1777634904 | 0.56° C | 96% | 1021.6 hPa | 0 mm | - | 2 W/m² | - |
| 1777634304 | 0.56° C | 96% | 1021.6 hPa | 0 mm | - | 0 W/m² | - |
| 1777633703 | 0.56° C | 96% | 1021.5 hPa | 0 mm | - | 0 W/m² | - |
| 1777633098 | 0.56° C | 95% | 1021.7 hPa | 0 mm | - | 0 W/m² | - |
| 1777632496 | 1.11° C | 95% | 1021.8 hPa | 0 mm | - | 0 W/m² | - |
| 1777631897 | 1.11° C | 96% | 1021.9 hPa | 0 mm | - | 0 W/m² | - |
| 1777631292 | 1.11° C | 96% | 1021.8 hPa | 0 mm | - | 0 W/m² | - |
| 1777630690 | 1.11° C | 95% | 1021.7 hPa | 0 mm | - | 0 W/m² | - |
| 1777630086 | 1.11° C | 95% | 1021.8 hPa | 0 mm | - | 0 W/m² | - |
| 1777629485 | 1.67° C | 94% | 1021.6 hPa | 0 mm | - | 0 W/m² | - |
| 1777628884 | 1.67° C | 94% | 1021.8 hPa | 0 mm | - | 0 W/m² | - |
| 1777628282 | 2.22° C | 94% | 1021.9 hPa | 0 mm | - | 0 W/m² | - |
* Rain latest hour (hover to see other rain measurements)
** Current wind speed in m/s (hover to see current wind gust speed)